sensor_id;sensor_type;location;lat;lon;timestamp;pressure;altitude;pressure_sealevel;temperature;humidity
7774;BME280;3931;42.260;23.116;2022-12-08T00:02:03;95297.06;;;15.33;56.86
7774;BME280;3931;42.260;23.116;2022-12-08T00:04:29;95299.19;;;15.48;56.85
7774;BME280;3931;42.260;23.116;2022-12-08T00:07:15;95299.53;;;15.31;57.13
7774;BME280;3931;42.260;23.116;2022-12-08T00:10:00;95287.75;;;15.46;57.79
7774;BME280;3931;42.260;23.116;2022-12-08T00:12:26;95290.63;;;15.51;57.17
7774;BME280;3931;42.260;23.116;2022-12-08T00:14:52;95286.94;;;15.78;56.86
7774;BME280;3931;42.260;23.116;2022-12-08T00:17:19;95294.22;;;15.43;57.81
7774;BME280;3931;42.260;23.116;2022-12-08T00:19:45;95316.03;;;15.11;58.81
7774;BME280;3931;42.260;23.116;2022-12-08T00:22:12;95303.25;;;15.38;58.51
7774;BME280;3931;42.260;23.116;2022-12-08T00:24:40;95317.97;;;15.29;58.21
7774;BME280;3931;42.260;23.116;2022-12-08T00:27:10;95310.53;;;15.35;59.25
7774;BME280;3931;42.260;23.116;2022-12-08T00:29:37;95316.44;;;14.95;60.10
7774;BME280;3931;42.260;23.116;2022-12-08T00:32:04;95319.59;;;15.54;58.64
7774;BME280;3931;42.260;23.116;2022-12-08T00:34:31;95325.06;;;15.39;59.23
7774;BME280;3931;42.260;23.116;2022-12-08T00:36:58;95321.59;;;15.62;58.37
7774;BME280;3931;42.260;23.116;2022-12-08T00:39:24;95319.78;;;15.74;58.83
7774;BME280;3931;42.260;23.116;2022-12-08T00:41:51;95312.84;;;15.69;58.81
7774;BME280;3931;42.260;23.116;2022-12-08T00:44:35;95320.69;;;15.14;60.56
7774;BME280;3931;42.260;23.116;2022-12-08T00:47:01;95321.22;;;15.69;59.52
7774;BME280;3931;42.260;23.116;2022-12-08T00:49:27;95329.06;;;15.80;59.47
7774;BME280;3931;42.260;23.116;2022-12-08T00:51:54;95336.94;;;15.81;59.22
7774;BME280;3931;42.260;23.116;2022-12-08T00:54:20;95340.28;;;15.71;59.59
7774;BME280;3931;42.260;23.116;2022-12-08T00:56:47;95336.38;;;15.35;60.02
7774;BME280;3931;42.260;23.116;2022-12-08T00:59:14;95339.25;;;14.57;63.21
7774;BME280;3931;42.260;23.116;2022-12-08T01:01:43;95335.44;;;15.39;60.96
7774;BME280;3931;42.260;23.116;2022-12-08T01:04:12;95331.91;;;15.71;59.47
7774;BME280;3931;42.260;23.116;2022-12-08T01:06:40;95322.22;;;15.57;58.49
7774;BME280;3931;42.260;23.116;2022-12-08T01:09:07;95321.78;;;15.50;59.59
7774;BME280;3931;42.260;23.116;2022-12-08T01:11:34;95312.06;;;15.36;58.93
7774;BME280;3931;42.260;23.116;2022-12-08T01:14:01;95312.50;;;15.76;57.90
7774;BME280;3931;42.260;23.116;2022-12-08T01:16:31;95314.97;;;15.74;57.81
7774;BME280;3931;42.260;23.116;2022-12-08T01:18:58;95323.00;;;15.81;57.45
7774;BME280;3931;42.260;23.116;2022-12-08T01:21:25;95331.56;;;15.78;57.19
7774;BME280;3931;42.260;23.116;2022-12-08T01:23:51;95322.81;;;15.61;57.91
7774;BME280;3931;42.260;23.116;2022-12-08T01:26:18;95321.94;;;15.55;57.56
7774;BME280;3931;42.260;23.116;2022-12-08T01:28:45;95316.69;;;15.48;57.63
7774;BME280;3931;42.260;23.116;2022-12-08T01:31:13;95324.53;;;15.59;57.69
7774;BME280;3931;42.260;23.116;2022-12-08T01:33:40;95330.59;;;15.81;57.08
7774;BME280;3931;42.260;23.116;2022-12-08T01:36:08;95333.03;;;15.88;56.60
7774;BME280;3931;42.260;23.116;2022-12-08T01:38:43;95329.16;;;15.62;56.76
7774;BME280;3931;42.260;23.116;2022-12-08T01:41:11;95332.75;;;15.62;56.77
7774;BME280;3931;42.260;23.116;2022-12-08T01:43:57;95322.22;;;16.04;55.94
7774;BME280;3931;42.260;23.116;2022-12-08T01:46:23;95324.91;;;15.99;56.33
7774;BME280;3931;42.260;23.116;2022-12-08T01:48:53;95330.53;;;15.90;56.33
7774;BME280;3931;42.260;23.116;2022-12-08T01:51:20;95324.59;;;15.97;56.69
7774;BME280;3931;42.260;23.116;2022-12-08T01:53:47;95320.88;;;15.11;58.73
7774;BME280;3931;42.260;23.116;2022-12-08T01:56:18;95327.22;;;15.53;58.40
7774;BME280;3931;42.260;23.116;2022-12-08T01:58:47;95326.66;;;14.80;60.05
7774;BME280;3931;42.260;23.116;2022-12-08T02:01:14;95317.81;;;15.65;58.13
7774;BME280;3931;42.260;23.116;2022-12-08T02:03:44;95315.16;;;15.38;59.57
7774;BME280;3931;42.260;23.116;2022-12-08T02:06:14;95319.09;;;15.88;57.72
7774;BME280;3931;42.260;23.116;2022-12-08T02:08:41;95312.13;;;15.83;57.46
7774;BME280;3931;42.260;23.116;2022-12-08T02:11:09;95309.66;;;15.62;58.35
7774;BME280;3931;42.260;23.116;2022-12-08T02:13:36;95311.25;;;15.77;57.74
7774;BME280;3931;42.260;23.116;2022-12-08T02:16:09;95304.66;;;15.89;57.43
7774;BME280;3931;42.260;23.116;2022-12-08T02:18:49;95304.19;;;15.91;57.63
7774;BME280;3931;42.260;23.116;2022-12-08T02:21:25;95302.75;;;15.95;57.42
7774;BME280;3931;42.260;23.116;2022-12-08T02:24:01;95296.19;;;15.84;57.18
7774;BME280;3931;42.260;23.116;2022-12-08T02:30:04;95292.84;;;15.38;58.53
7774;BME280;3931;42.260;23.116;2022-12-08T02:33:02;95295.88;;;15.58;57.77
7774;BME280;3931;42.260;23.116;2022-12-08T02:35:35;95290.81;;;15.48;58.08
7774;BME280;3931;42.260;23.116;2022-12-08T02:38:08;95284.78;;;15.73;57.56
7774;BME280;3931;42.260;23.116;2022-12-08T02:40:47;95275.69;;;15.87;57.24
7774;BME280;3931;42.260;23.116;2022-12-08T02:43:22;95286.03;;;15.95;57.17
7774;BME280;3931;42.260;23.116;2022-12-08T02:45:54;95281.38;;;15.92;57.03
7774;BME280;3931;42.260;23.116;2022-12-08T02:48:21;95283.81;;;15.76;58.14
7774;BME280;3931;42.260;23.116;2022-12-08T02:50:48;95294.09;;;15.70;58.45
7774;BME280;3931;42.260;23.116;2022-12-08T02:53:14;95289.00;;;15.35;59.40
7774;BME280;3931;42.260;23.116;2022-12-08T02:55:47;95291.00;;;14.51;61.87
7774;BME280;3931;42.260;23.116;2022-12-08T02:58:47;95287.03;;;14.94;60.52
7774;BME280;3931;42.260;23.116;2022-12-08T03:01:34;95294.41;;;15.06;59.72
7774;BME280;3931;42.260;23.116;2022-12-08T03:04:10;95280.63;;;15.68;58.81
7774;BME280;3931;42.260;23.116;2022-12-08T03:06:44;95284.94;;;15.69;58.42
7774;BME280;3931;42.260;23.116;2022-12-08T03:09:17;95283.53;;;15.17;60.86
7774;BME280;3931;42.260;23.116;2022-12-08T03:11:46;95273.16;;;15.74;59.87
7774;BME280;3931;42.260;23.116;2022-12-08T03:14:15;95274.69;;;15.52;60.71
7774;BME280;3931;42.260;23.116;2022-12-08T03:16:45;95273.50;;;15.11;62.09
7774;BME280;3931;42.260;23.116;2022-12-08T03:19:17;95268.06;;;14.75;64.01
7774;BME280;3931;42.260;23.116;2022-12-08T03:21:48;95274.22;;;14.79;63.52
7774;BME280;3931;42.260;23.116;2022-12-08T03:24:15;95273.41;;;14.96;63.09
7774;BME280;3931;42.260;23.116;2022-12-08T03:26:46;95271.81;;;14.63;63.78
7774;BME280;3931;42.260;23.116;2022-12-08T03:29:13;95269.91;;;15.43;61.73
7774;BME280;3931;42.260;23.116;2022-12-08T03:31:43;95275.78;;;15.78;59.87
7774;BME280;3931;42.260;23.116;2022-12-08T03:34:11;95272.56;;;15.70;59.60
7774;BME280;3931;42.260;23.116;2022-12-08T03:36:38;95276.88;;;15.71;58.84
7774;BME280;3931;42.260;23.116;2022-12-08T03:39:05;95269.53;;;14.94;61.03
7774;BME280;3931;42.260;23.116;2022-12-08T03:41:31;95269.16;;;15.10;61.32
7774;BME280;3931;42.260;23.116;2022-12-08T03:43:57;95273.31;;;15.47;60.90
7774;BME280;3931;42.260;23.116;2022-12-08T03:46:25;95269.16;;;15.10;61.09
7774;BME280;3931;42.260;23.116;2022-12-08T03:48:52;95278.53;;;14.89;62.17
7774;BME280;3931;42.260;23.116;2022-12-08T03:51:18;95275.06;;;15.68;60.40
7774;BME280;3931;42.260;23.116;2022-12-08T03:53:45;95281.53;;;15.51;60.41
7774;BME280;3931;42.260;23.116;2022-12-08T03:56:15;95292.34;;;15.96;59.42
7774;BME280;3931;42.260;23.116;2022-12-08T03:58:44;95291.44;;;15.75;59.54
7774;BME280;3931;42.260;23.116;2022-12-08T04:01:11;95292.28;;;16.05;59.24
7774;BME280;3931;42.260;23.116;2022-12-08T04:03:37;95293.28;;;16.17;58.69
7774;BME280;3931;42.260;23.116;2022-12-08T04:06:03;95296.72;;;16.12;58.78
7774;BME280;3931;42.260;23.116;2022-12-08T04:08:30;95291.94;;;16.12;59.78
7774;BME280;3931;42.260;23.116;2022-12-08T04:10:56;95300.34;;;16.27;59.02
7774;BME280;3931;42.260;23.116;2022-12-08T04:13:23;95299.75;;;16.23;58.78
7774;BME280;3931;42.260;23.116;2022-12-08T04:15:49;95304.22;;;16.29;58.31
7774;BME280;3931;42.260;23.116;2022-12-08T04:18:15;95306.50;;;15.36;60.18
7774;BME280;3931;42.260;23.116;2022-12-08T04:20:42;95312.59;;;16.05;58.16
7774;BME280;3931;42.260;23.116;2022-12-08T04:23:09;95307.88;;;16.35;57.39
7774;BME280;3931;42.260;23.116;2022-12-08T04:25:36;95302.06;;;16.24;57.44
7774;BME280;3931;42.260;23.116;2022-12-08T04:28:02;95307.88;;;15.97;57.85
7774;BME280;3931;42.260;23.116;2022-12-08T04:30:29;95316.78;;;15.21;59.60
7774;BME280;3931;42.260;23.116;2022-12-08T04:32:56;95315.59;;;15.13;59.90
7774;BME280;3931;42.260;23.116;2022-12-08T04:35:22;95317.31;;;15.10;59.91
7774;BME280;3931;42.260;23.116;2022-12-08T04:37:48;95317.22;;;15.28;59.65
7774;BME280;3931;42.260;23.116;2022-12-08T04:40:14;95313.72;;;15.52;58.67
7774;BME280;3931;42.260;23.116;2022-12-08T04:42:40;95315.78;;;15.42;58.41
7774;BME280;3931;42.260;23.116;2022-12-08T04:45:07;95320.50;;;15.18;60.06
7774;BME280;3931;42.260;23.116;2022-12-08T04:47:34;95322.06;;;15.19;59.51
7774;BME280;3931;42.260;23.116;2022-12-08T04:50:00;95319.53;;;15.30;58.76
7774;BME280;3931;42.260;23.116;2022-12-08T04:52:26;95309.53;;;14.73;60.57
7774;BME280;3931;42.260;23.116;2022-12-08T04:54:52;95317.78;;;15.00;60.91
7774;BME280;3931;42.260;23.116;2022-12-08T04:57:18;95317.53;;;15.30;60.54
7774;BME280;3931;42.260;23.116;2022-12-08T04:59:44;95310.78;;;15.79;58.65
7774;BME280;3931;42.260;23.116;2022-12-08T05:02:10;95305.16;;;16.02;58.43
7774;BME280;3931;42.260;23.116;2022-12-08T05:04:38;95307.38;;;16.22;58.17
7774;BME280;3931;42.260;23.116;2022-12-08T05:07:04;95311.91;;;16.34;57.74
7774;BME280;3931;42.260;23.116;2022-12-08T05:09:30;95307.75;;;16.53;57.25
7774;BME280;3931;42.260;23.116;2022-12-08T05:11:56;95313.91;;;16.34;58.83
7774;BME280;3931;42.260;23.116;2022-12-08T05:14:22;95319.97;;;16.18;58.94
7774;BME280;3931;42.260;23.116;2022-12-08T05:16:49;95321.38;;;15.89;59.26
7774;BME280;3931;42.260;23.116;2022-12-08T05:19:15;95319.03;;;15.73;60.68
7774;BME280;3931;42.260;23.116;2022-12-08T05:21:42;95327.50;;;16.41;58.50
7774;BME280;3931;42.260;23.116;2022-12-08T05:24:08;95335.09;;;16.64;57.95
7774;BME280;3931;42.260;23.116;2022-12-08T05:26:34;95327.13;;;16.10;58.44
7774;BME280;3931;42.260;23.116;2022-12-08T05:29:01;95324.94;;;16.14;59.29
7774;BME280;3931;42.260;23.116;2022-12-08T05:31:27;95322.06;;;16.23;59.28
7774;BME280;3931;42.260;23.116;2022-12-08T05:33:53;95313.88;;;16.04;59.93
7774;BME280;3931;42.260;23.116;2022-12-08T05:36:19;95321.75;;;16.44;58.65
7774;BME280;3931;42.260;23.116;2022-12-08T05:38:46;95322.59;;;16.36;59.21
7774;BME280;3931;42.260;23.116;2022-12-08T05:41:14;95316.81;;;16.01;60.47
7774;BME280;3931;42.260;23.116;2022-12-08T05:43:40;95329.69;;;15.98;62.06
7774;BME280;3931;42.260;23.116;2022-12-08T05:46:07;95343.03;;;16.42;59.18
7774;BME280;3931;42.260;23.116;2022-12-08T05:48:33;95352.72;;;16.70;58.50
7774;BME280;3931;42.260;23.116;2022-12-08T05:51:00;95349.56;;;16.77;58.45
7774;BME280;3931;42.260;23.116;2022-12-08T05:53:26;95354.72;;;16.69;57.80
7774;BME280;3931;42.260;23.116;2022-12-08T05:55:53;95358.88;;;16.74;57.85
7774;BME280;3931;42.260;23.116;2022-12-08T05:58:20;95351.50;;;16.47;58.31
7774;BME280;3931;42.260;23.116;2022-12-08T06:00:48;95349.75;;;16.50;58.59
7774;BME280;3931;42.260;23.116;2022-12-08T06:03:17;95356.78;;;16.69;57.98
7774;BME280;3931;42.260;23.116;2022-12-08T06:05:45;95355.44;;;16.79;57.86
7774;BME280;3931;42.260;23.116;2022-12-08T06:08:11;95358.50;;;16.66;58.78
7774;BME280;3931;42.260;23.116;2022-12-08T06:10:38;95355.13;;;16.62;58.50
7774;BME280;3931;42.260;23.116;2022-12-08T06:13:05;95364.47;;;16.74;58.80
7774;BME280;3931;42.260;23.116;2022-12-08T06:15:33;95362.38;;;16.84;58.34
7774;BME280;3931;42.260;23.116;2022-12-08T06:17:59;95363.44;;;16.86;58.30
7774;BME280;3931;42.260;23.116;2022-12-08T06:20:25;95370.88;;;16.89;58.28
7774;BME280;3931;42.260;23.116;2022-12-08T06:22:53;95365.56;;;16.91;58.10
7774;BME280;3931;42.260;23.116;2022-12-08T06:25:19;95364.66;;;16.85;58.58
7774;BME280;3931;42.260;23.116;2022-12-08T06:27:45;95372.22;;;17.08;58.38
7774;BME280;3931;42.260;23.116;2022-12-08T06:30:13;95372.59;;;17.01;57.87
7774;BME280;3931;42.260;23.116;2022-12-08T06:32:39;95371.53;;;16.84;58.88
7774;BME280;3931;42.260;23.116;2022-12-08T06:35:06;95362.09;;;16.96;58.93
7774;BME280;3931;42.260;23.116;2022-12-08T06:37:32;95372.31;;;16.99;58.86
7774;BME280;3931;42.260;23.116;2022-12-08T06:39:58;95371.63;;;17.19;58.46
7774;BME280;3931;42.260;23.116;2022-12-08T06:42:24;95378.00;;;17.34;57.79
7774;BME280;3931;42.260;23.116;2022-12-08T06:45:10;95376.44;;;17.33;57.11
7774;BME280;3931;42.260;23.116;2022-12-08T06:47:37;95378.84;;;17.25;57.71
7774;BME280;3931;42.260;23.116;2022-12-08T06:50:04;95378.38;;;17.27;58.07
7774;BME280;3931;42.260;23.116;2022-12-08T06:52:30;95392.94;;;17.02;59.56
7774;BME280;3931;42.260;23.116;2022-12-08T06:54:57;95378.28;;;16.92;60.71
7774;BME280;3931;42.260;23.116;2022-12-08T06:57:23;95376.44;;;17.33;59.39
7774;BME280;3931;42.260;23.116;2022-12-08T06:59:50;95379.25;;;17.04;59.96
7774;BME280;3931;42.260;23.116;2022-12-08T07:02:16;95378.94;;;17.45;59.30
7774;BME280;3931;42.260;23.116;2022-12-08T07:04:43;95382.00;;;17.47;58.80
7774;BME280;3931;42.260;23.116;2022-12-08T07:07:09;95386.84;;;17.62;59.20
7774;BME280;3931;42.260;23.116;2022-12-08T07:09:35;95388.66;;;17.50;59.29
7774;BME280;3931;42.260;23.116;2022-12-08T07:12:01;95386.66;;;17.36;60.21
7774;BME280;3931;42.260;23.116;2022-12-08T07:14:28;95393.22;;;17.33;61.06
7774;BME280;3931;42.260;23.116;2022-12-08T07:16:54;95402.22;;;17.52;60.13
7774;BME280;3931;42.260;23.116;2022-12-08T07:19:20;95404.66;;;16.76;60.77
7774;BME280;3931;42.260;23.116;2022-12-08T07:21:47;95409.31;;;17.23;60.36
7774;BME280;3931;42.260;23.116;2022-12-08T07:24:13;95396.63;;;17.52;59.38
7774;BME280;3931;42.260;23.116;2022-12-08T07:26:39;95404.59;;;17.73;58.91
7774;BME280;3931;42.260;23.116;2022-12-08T07:29:05;95406.81;;;17.55;58.69
7774;BME280;3931;42.260;23.116;2022-12-08T07:31:31;95411.75;;;17.60;59.31
7774;BME280;3931;42.260;23.116;2022-12-08T07:33:58;95412.59;;;17.36;60.31
7774;BME280;3931;42.260;23.116;2022-12-08T07:36:25;95409.72;;;17.31;60.23
7774;BME280;3931;42.260;23.116;2022-12-08T07:38:52;95412.94;;;17.88;58.65
7774;BME280;3931;42.260;23.116;2022-12-08T07:41:21;95410.69;;;17.42;59.62
7774;BME280;3931;42.260;23.116;2022-12-08T07:43:47;95410.19;;;17.00;60.58
7774;BME280;3931;42.260;23.116;2022-12-08T07:46:17;95408.75;;;17.19;60.36
7774;BME280;3931;42.260;23.116;2022-12-08T07:48:44;95412.59;;;17.66;59.32
7774;BME280;3931;42.260;23.116;2022-12-08T07:51:11;95401.69;;;17.82;58.86
7774;BME280;3931;42.260;23.116;2022-12-08T07:53:38;95399.78;;;18.29;57.41
7774;BME280;3931;42.260;23.116;2022-12-08T07:56:05;95390.63;;;18.68;57.09
7774;BME280;3931;42.260;23.116;2022-12-08T07:58:32;95394.47;;;20.53;53.69
7774;BME280;3931;42.260;23.116;2022-12-08T08:00:58;95389.38;;;22.04;49.43
7774;BME280;3931;42.260;23.116;2022-12-08T08:03:24;95394.38;;;22.67;47.14
7774;BME280;3931;42.260;23.116;2022-12-08T08:05:51;95386.13;;;23.97;45.53
7774;BME280;3931;42.260;23.116;2022-12-08T08:08:17;95392.94;;;25.78;42.67
7774;BME280;3931;42.260;23.116;2022-12-08T08:10:44;95389.75;;;26.71;40.58
7774;BME280;3931;42.260;23.116;2022-12-08T08:13:11;95395.13;;;26.74;40.03
7774;BME280;3931;42.260;23.116;2022-12-08T08:15:38;95388.50;;;26.27;40.83
7774;BME280;3931;42.260;23.116;2022-12-08T08:18:04;95398.06;;;26.95;39.82
7774;BME280;3931;42.260;23.116;2022-12-08T08:20:30;95383.22;;;27.83;38.22
7774;BME280;3931;42.260;23.116;2022-12-08T08:22:56;95389.69;;;27.70;38.73
7774;BME280;3931;42.260;23.116;2022-12-08T08:25:22;95383.94;;;28.94;37.35
7774;BME280;3931;42.260;23.116;2022-12-08T08:27:49;95381.25;;;29.24;36.75
7774;BME280;3931;42.260;23.116;2022-12-08T08:30:18;95391.63;;;28.30;37.38
7774;BME280;3931;42.260;23.116;2022-12-08T08:32:44;95388.78;;;28.09;38.36
7774;BME280;3931;42.260;23.116;2022-12-08T08:35:10;95386.13;;;29.16;36.50
7774;BME280;3931;42.260;23.116;2022-12-08T08:37:37;95378.78;;;29.28;37.12
7774;BME280;3931;42.260;23.116;2022-12-08T08:40:04;95379.22;;;29.98;35.71
7774;BME280;3931;42.260;23.116;2022-12-08T08:42:30;95373.88;;;29.87;35.62
7774;BME280;3931;42.260;23.116;2022-12-08T08:44:56;95371.22;;;30.27;35.40
7774;BME280;3931;42.260;23.116;2022-12-08T08:47:23;95368.72;;;29.78;35.27
7774;BME280;3931;42.260;23.116;2022-12-08T08:49:49;95364.97;;;30.06;35.54
7774;BME280;3931;42.260;23.116;2022-12-08T08:52:15;95356.09;;;29.58;36.29
7774;BME280;3931;42.260;23.116;2022-12-08T08:54:41;95354.22;;;27.84;38.73
7774;BME280;3931;42.260;23.116;2022-12-08T08:57:07;95355.03;;;26.52;39.71
7774;BME280;3931;42.260;23.116;2022-12-08T08:59:34;95347.72;;;26.43;41.07
7774;BME280;3931;42.260;23.116;2022-12-08T09:02:00;95339.09;;;26.49;41.03
7774;BME280;3931;42.260;23.116;2022-12-08T09:04:26;95337.41;;;25.69;41.93
7774;BME280;3931;42.260;23.116;2022-12-08T09:06:52;95342.03;;;23.88;44.70
7774;BME280;3931;42.260;23.116;2022-12-08T09:09:19;95331.41;;;23.94;45.67
7774;BME280;3931;42.260;23.116;2022-12-08T09:11:45;95331.31;;;23.46;47.24
7774;BME280;3931;42.260;23.116;2022-12-08T09:14:11;95326.66;;;23.13;48.03
7774;BME280;3931;42.260;23.116;2022-12-08T09:16:39;95333.22;;;22.34;49.45
7774;BME280;3931;42.260;23.116;2022-12-08T09:19:05;95320.00;;;21.96;50.85
7774;BME280;3931;42.260;23.116;2022-12-08T09:21:32;95317.94;;;21.91;51.57
7774;BME280;3931;42.260;23.116;2022-12-08T09:23:58;95319.00;;;21.49;52.86
7774;BME280;3931;42.260;23.116;2022-12-08T09:26:26;95310.03;;;21.89;52.70
7774;BME280;3931;42.260;23.116;2022-12-08T09:28:53;95313.75;;;22.25;50.91
7774;BME280;3931;42.260;23.116;2022-12-08T09:31:21;95316.94;;;21.55;52.92
7774;BME280;3931;42.260;23.116;2022-12-08T09:33:48;95311.84;;;21.53;53.35
7774;BME280;3931;42.260;23.116;2022-12-08T09:36:16;95300.28;;;21.01;55.36
7774;BME280;3931;42.260;23.116;2022-12-08T09:38:43;95299.91;;;20.44;56.49
7774;BME280;3931;42.260;23.116;2022-12-08T09:41:14;95302.25;;;20.68;56.22
7774;BME280;3931;42.260;23.116;2022-12-08T09:43:50;95303.81;;;20.85;55.71
7774;BME280;3931;42.260;23.116;2022-12-08T09:46:20;95298.75;;;21.84;53.78
7774;BME280;3931;42.260;23.116;2022-12-08T09:48:50;95295.41;;;21.91;52.92
7774;BME280;3931;42.260;23.116;2022-12-08T09:51:20;95293.09;;;22.58;51.63
7774;BME280;3931;42.260;23.116;2022-12-08T09:53:51;95282.34;;;22.56;50.53
7774;BME280;3931;42.260;23.116;2022-12-08T09:56:21;95282.13;;;22.54;50.70
7774;BME280;3931;42.260;23.116;2022-12-08T09:58:50;95290.06;;;22.50;49.27
7774;BME280;3931;42.260;23.116;2022-12-08T10:01:19;95273.66;;;21.86;50.08
7774;BME280;3931;42.260;23.116;2022-12-08T10:03:46;95277.81;;;22.36;49.20
7774;BME280;3931;42.260;23.116;2022-12-08T10:06:18;95256.91;;;22.15;49.60
7774;BME280;3931;42.260;23.116;2022-12-08T10:08:53;95290.75;;;21.99;49.01
7774;BME280;3931;42.260;23.116;2022-12-08T10:11:28;95245.66;;;23.02;48.27
7774;BME280;3931;42.260;23.116;2022-12-08T10:14:05;95261.88;;;23.26;47.14
7774;BME280;3931;42.260;23.116;2022-12-08T10:16:38;95248.88;;;23.17;47.97
7774;BME280;3931;42.260;23.116;2022-12-08T10:19:13;95247.88;;;22.28;49.24
7774;BME280;3931;42.260;23.116;2022-12-08T10:21:40;95261.38;;;21.66;50.34
7774;BME280;3931;42.260;23.116;2022-12-08T10:24:13;95253.28;;;22.26;49.57
7774;BME280;3931;42.260;23.116;2022-12-08T10:26:40;95244.91;;;23.02;48.14
7774;BME280;3931;42.260;23.116;2022-12-08T10:29:08;95234.34;;;23.67;47.13
7774;BME280;3931;42.260;23.116;2022-12-08T10:31:37;95231.66;;;23.75;46.85
7774;BME280;3931;42.260;23.116;2022-12-08T10:34:14;95244.84;;;24.15;46.05
7774;BME280;3931;42.260;23.116;2022-12-08T10:36:48;95229.97;;;24.33;46.00
7774;BME280;3931;42.260;23.116;2022-12-08T10:39:37;95229.41;;;23.44;47.35
7774;BME280;3931;42.260;23.116;2022-12-08T10:42:16;95220.25;;;23.62;47.21
7774;BME280;3931;42.260;23.116;2022-12-08T10:44:53;95218.88;;;23.14;48.26
7774;BME280;3931;42.260;23.116;2022-12-08T10:47:21;95221.19;;;23.16;47.84
7774;BME280;3931;42.260;23.116;2022-12-08T10:50:06;95221.06;;;22.97;48.99
7774;BME280;3931;42.260;23.116;2022-12-08T10:52:37;95223.47;;;23.17;48.68
7774;BME280;3931;42.260;23.116;2022-12-08T10:55:13;95229.34;;;21.69;50.86
7774;BME280;3931;42.260;23.116;2022-12-08T10:57:39;95223.50;;;21.62;51.83
7774;BME280;3931;42.260;23.116;2022-12-08T11:00:06;95216.16;;;21.31;51.87
7774;BME280;3931;42.260;23.116;2022-12-08T11:02:32;95217.88;;;21.56;52.17
7774;BME280;3931;42.260;23.116;2022-12-08T11:04:59;95216.81;;;21.65;51.52
7774;BME280;3931;42.260;23.116;2022-12-08T11:07:25;95218.41;;;21.49;52.61
7774;BME280;3931;42.260;23.116;2022-12-08T11:09:54;95217.16;;;21.28;52.57
7774;BME280;3931;42.260;23.116;2022-12-08T11:12:25;95220.78;;;21.07;53.07
7774;BME280;3931;42.260;23.116;2022-12-08T11:14:56;95222.31;;;21.24;52.37
7774;BME280;3931;42.260;23.116;2022-12-08T11:17:27;95219.41;;;21.68;51.67
7774;BME280;3931;42.260;23.116;2022-12-08T11:20:02;95221.97;;;21.61;51.44
7774;BME280;3931;42.260;23.116;2022-12-08T11:22:32;95206.81;;;21.75;51.16
7774;BME280;3931;42.260;23.116;2022-12-08T11:25:07;95196.22;;;22.09;50.60
7774;BME280;3931;42.260;23.116;2022-12-08T11:27:37;95199.41;;;22.35;49.43
7774;BME280;3931;42.260;23.116;2022-12-08T11:30:12;95196.91;;;22.26;49.91
7774;BME280;3931;42.260;23.116;2022-12-08T11:32:39;95194.06;;;21.68;50.31
7774;BME280;3931;42.260;23.116;2022-12-08T11:35:09;95201.56;;;20.88;52.03
7774;BME280;3931;42.260;23.116;2022-12-08T11:37:41;95201.28;;;21.36;51.72
7774;BME280;3931;42.260;23.116;2022-12-08T11:40:15;95193.38;;;21.18;51.97
7774;BME280;3931;42.260;23.116;2022-12-08T11:42:50;95184.44;;;21.14;52.67
7774;BME280;3931;42.260;23.116;2022-12-08T11:45:22;95185.72;;;21.19;52.58
7774;BME280;3931;42.260;23.116;2022-12-08T11:47:57;95175.47;;;20.99;52.84
7774;BME280;3931;42.260;23.116;2022-12-08T11:50:41;95172.16;;;20.89;52.23
7774;BME280;3931;42.260;23.116;2022-12-08T11:53:14;95178.81;;;21.14;52.72
7774;BME280;3931;42.260;23.116;2022-12-08T11:55:47;95171.38;;;21.28;51.87
7774;BME280;3931;42.260;23.116;2022-12-08T11:58:17;95164.47;;;21.23;52.13
7774;BME280;3931;42.260;23.116;2022-12-08T12:00:44;95168.84;;;21.24;51.94
7774;BME280;3931;42.260;23.116;2022-12-08T12:03:19;95163.94;;;21.30;51.81
7774;BME280;3931;42.260;23.116;2022-12-08T12:06:00;95161.13;;;21.30;51.73
7774;BME280;3931;42.260;23.116;2022-12-08T12:08:40;95159.66;;;20.79;52.83
7774;BME280;3931;42.260;23.116;2022-12-08T12:11:15;95156.56;;;21.05;53.28
7774;BME280;3931;42.260;23.116;2022-12-08T12:14:16;95153.50;;;20.70;53.92
7774;BME280;3931;42.260;23.116;2022-12-08T12:16:56;95148.34;;;21.18;52.67
7774;BME280;3931;42.260;23.116;2022-12-08T12:19:23;95144.03;;;21.12;52.65
7774;BME280;3931;42.260;23.116;2022-12-08T12:21:54;95147.88;;;20.86;53.41
7774;BME280;3931;42.260;23.116;2022-12-08T12:24:23;95151.22;;;20.79;53.64
7774;BME280;3931;42.260;23.116;2022-12-08T12:26:54;95154.00;;;20.63;54.19
7774;BME280;3931;42.260;23.116;2022-12-08T12:29:25;95151.72;;;20.78;54.43
7774;BME280;3931;42.260;23.116;2022-12-08T12:31:54;95153.25;;;20.68;54.82
7774;BME280;3931;42.260;23.116;2022-12-08T12:34:25;95151.97;;;20.74;54.00
7774;BME280;3931;42.260;23.116;2022-12-08T12:36:54;95152.97;;;20.49;54.30
7774;BME280;3931;42.260;23.116;2022-12-08T12:39:24;95152.47;;;20.78;54.14
7774;BME280;3931;42.260;23.116;2022-12-08T12:41:54;95146.84;;;20.67;54.25
7774;BME280;3931;42.260;23.116;2022-12-08T12:44:39;95149.44;;;20.60;54.26
7774;BME280;3931;42.260;23.116;2022-12-08T12:47:13;95144.81;;;20.95;53.85
7774;BME280;3931;42.260;23.116;2022-12-08T12:50:07;95146.31;;;20.96;53.24
7774;BME280;3931;42.260;23.116;2022-12-08T12:52:43;95142.75;;;20.85;53.01
7774;BME280;3931;42.260;23.116;2022-12-08T12:58:32;95146.59;;;20.87;53.08
7774;BME280;3931;42.260;23.116;2022-12-08T13:04:07;95161.19;;;21.08;53.29
7774;BME280;3931;42.260;23.116;2022-12-08T13:06:38;95164.00;;;20.75;53.93
7774;BME280;3931;42.260;23.116;2022-12-08T13:09:06;95157.59;;;20.63;54.94
7774;BME280;3931;42.260;23.116;2022-12-08T13:11:47;95156.56;;;20.33;56.38
7774;BME280;3931;42.260;23.116;2022-12-08T13:14:29;95146.59;;;20.87;55.15
7774;BME280;3931;42.260;23.116;2022-12-08T13:16:58;95140.72;;;20.52;54.21
7774;BME280;3931;42.260;23.116;2022-12-08T13:19:29;95146.09;;;20.72;53.13
7774;BME280;3931;42.260;23.116;2022-12-08T13:21:56;95154.28;;;20.59;53.28
7774;BME280;3931;42.260;23.116;2022-12-08T13:24:29;95137.16;;;20.57;52.57
7774;BME280;3931;42.260;23.116;2022-12-08T13:27:28;95134.56;;;20.98;51.59
7774;BME280;3931;42.260;23.116;2022-12-08T13:33:14;95139.22;;;20.62;52.14
7774;BME280;3931;42.260;23.116;2022-12-08T13:35:46;95140.47;;;20.83;52.71